createdAt,value
2019-05-09T00:01:47.786Z,9.80
2019-05-09T00:04:16.742Z,9.80
2019-05-09T00:06:45.660Z,9.80
2019-05-09T00:09:17.970Z,9.80
2019-05-09T00:11:47.176Z,9.80
2019-05-09T00:14:16.182Z,9.70
2019-05-09T00:16:45.121Z,9.80
2019-05-09T00:19:14.066Z,9.80
2019-05-09T00:21:44.689Z,9.70
2019-05-09T00:24:14.051Z,9.70
2019-05-09T00:26:44.268Z,9.70
2019-05-09T00:29:19.300Z,9.70
2019-05-09T00:31:55.133Z,9.70
2019-05-09T00:34:34.470Z,9.70
2019-05-09T00:37:03.437Z,9.70
2019-05-09T00:39:34.105Z,9.60
2019-05-09T00:42:04.341Z,9.60
2019-05-09T00:44:35.272Z,9.60
2019-05-09T00:47:10.793Z,9.60
2019-05-09T00:49:39.661Z,9.50
2019-05-09T00:52:08.592Z,9.50
2019-05-09T00:54:37.483Z,9.50
2019-05-09T00:57:06.494Z,9.50
2019-05-09T00:59:35.434Z,9.50
2019-05-09T01:02:04.765Z,9.50
2019-05-09T01:04:33.945Z,9.50
2019-05-09T01:07:03.596Z,9.40
2019-05-09T01:09:33.421Z,9.40
2019-05-09T01:12:04.156Z,9.40
2019-05-09T01:14:34.067Z,9.40
2019-05-09T01:17:04.199Z,9.40
2019-05-09T01:19:33.870Z,9.30
2019-05-09T01:22:03.850Z,9.40
2019-05-09T01:24:33.774Z,9.40
2019-05-09T01:27:03.574Z,9.40
2019-05-09T01:29:33.736Z,9.30
2019-05-09T01:32:05.973Z,9.30
2019-05-09T01:34:35.368Z,9.30
2019-05-09T01:37:05.625Z,9.20
2019-05-09T01:39:35.773Z,9.20
2019-05-09T01:42:05.751Z,9.10
2019-05-09T01:44:34.874Z,9.10
2019-05-09T01:47:04.152Z,9.10
2019-05-09T01:49:34.216Z,9.10
2019-05-09T01:52:04.094Z,9.10
2019-05-09T01:54:34.818Z,9.10
2019-05-09T01:57:04.309Z,9.00
2019-05-09T01:59:34.159Z,9.00
2019-05-09T02:02:08.160Z,9.00
2019-05-09T02:04:34.641Z,8.90
2019-05-09T02:07:04.241Z,8.90
2019-05-09T02:09:34.291Z,8.80
2019-05-09T02:12:04.159Z,8.80
2019-05-09T02:15:07.878Z,8.80
2019-05-09T02:17:58.893Z,8.70
2019-05-09T02:20:24.175Z,8.70
2019-05-09T02:22:54.220Z,8.70
2019-05-09T02:25:24.239Z,8.60
2019-05-09T02:27:55.255Z,8.70
2019-05-09T02:30:25.578Z,8.60
2019-05-09T02:32:54.890Z,8.60
2019-05-09T02:35:24.063Z,8.60
2019-05-09T02:37:53.026Z,8.60
2019-05-09T02:40:22.334Z,8.60
2019-05-09T02:42:51.222Z,8.60
2019-05-09T02:45:21.318Z,8.50
2019-05-09T02:47:50.750Z,8.50
2019-05-09T02:50:19.899Z,8.50
2019-05-09T02:52:48.962Z,8.40
2019-05-09T02:55:18.607Z,8.50
2019-05-09T02:57:49.548Z,8.40
2019-05-09T03:00:32.339Z,8.40
2019-05-09T03:03:09.437Z,8.40
2019-05-09T03:05:38.818Z,8.40
2019-05-09T03:08:09.067Z,8.30
2019-05-09T03:10:38.549Z,8.30
2019-05-09T03:13:09.090Z,8.30
2019-05-09T03:15:39.368Z,8.20
2019-05-09T03:18:09.364Z,8.20
2019-05-09T03:21:04.037Z,8.20
2019-05-09T03:23:33.073Z,8.10
2019-05-09T03:26:02.238Z,8.10
2019-05-09T03:28:59.123Z,8.10
2019-05-09T03:31:29.791Z,8.00
2019-05-09T03:33:59.802Z,8.00
2019-05-09T03:36:28.956Z,7.90
2019-05-09T03:38:57.925Z,7.90
2019-05-09T03:41:28.224Z,7.80
2019-05-09T03:43:58.559Z,7.80
2019-05-09T03:46:38.501Z,7.70
2019-05-09T03:49:07.994Z,7.70
2019-05-09T03:51:37.938Z,7.60
2019-05-09T03:54:08.067Z,7.50
2019-05-09T03:56:41.105Z,7.40
2019-05-09T03:59:10.041Z,7.50
2019-05-09T04:01:39.138Z,7.40
2019-05-09T04:04:08.898Z,7.40
2019-05-09T04:06:39.150Z,7.30
2019-05-09T04:09:08.479Z,7.20
2019-05-09T04:11:38.123Z,7.20
2019-05-09T04:14:11.021Z,7.20
2019-05-09T04:16:40.104Z,7.10
2019-05-09T04:19:09.233Z,7.20
2019-05-09T04:21:38.397Z,7.30
2019-05-09T04:24:08.507Z,7.30
2019-05-09T04:26:48.296Z,7.30
2019-05-09T04:29:18.408Z,7.20
2019-05-09T04:31:48.367Z,7.20
2019-05-09T04:34:18.597Z,7.10
2019-05-09T04:36:48.482Z,7.10
2019-05-09T04:39:21.865Z,7.10
2019-05-09T04:41:49.092Z,7.10
2019-05-09T04:44:49.582Z,7.00
2019-05-09T04:47:17.406Z,7.00
2019-05-09T04:49:47.912Z,7.00
2019-05-09T04:52:18.083Z,7.00
2019-05-09T04:54:48.461Z,6.90
2019-05-09T04:57:17.975Z,6.90
2019-05-09T04:59:47.593Z,6.90
2019-05-09T05:02:27.598Z,6.90
2019-05-09T05:04:58.571Z,6.90
2019-05-09T05:07:28.727Z,7.00
2019-05-09T05:09:58.172Z,7.10
2019-05-09T05:12:27.730Z,7.10
2019-05-09T05:14:58.107Z,7.20
2019-05-09T05:17:28.298Z,7.30
2019-05-09T05:19:58.508Z,7.40
2019-05-09T05:22:33.274Z,7.60
2019-05-09T05:25:03.787Z,7.80
2019-05-09T05:27:32.879Z,8.00
2019-05-09T05:30:01.902Z,8.20
2019-05-09T05:32:49.841Z,8.40
2019-05-09T05:35:25.097Z,8.50
2019-05-09T05:37:53.936Z,8.60
2019-05-09T05:40:23.052Z,8.70
2019-05-09T05:42:52.175Z,8.80
2019-05-09T05:45:21.290Z,8.90
2019-05-09T05:47:54.394Z,9.10
2019-05-09T05:50:23.442Z,9.40
2019-05-09T05:52:52.605Z,9.70
2019-05-09T05:55:21.540Z,9.70
2019-05-09T05:57:50.636Z,9.90
2019-05-09T06:00:22.448Z,10.30
2019-05-09T06:02:51.741Z,10.80
2019-05-09T06:05:20.633Z,10.90
2019-05-09T06:07:49.679Z,11.00
2019-05-09T06:10:19.013Z,11.30
2019-05-09T06:12:48.377Z,11.50
2019-05-09T06:15:18.349Z,11.70
2019-05-09T06:17:48.456Z,12.00
2019-05-09T06:20:18.032Z,12.60
2019-05-09T06:22:47.690Z,12.60
2019-05-09T06:25:20.758Z,12.90
2019-05-09T06:27:48.342Z,13.50
2019-05-09T06:30:28.688Z,14.00
2019-05-09T06:32:58.334Z,14.10
2019-05-09T06:35:28.317Z,13.90
2019-05-09T06:37:58.832Z,13.70
2019-05-09T06:40:28.953Z,13.60
2019-05-09T06:42:59.319Z,14.00
2019-05-09T06:45:41.438Z,14.50
2019-05-09T06:48:08.994Z,14.70
2019-05-09T06:50:37.990Z,14.70
2019-05-09T06:53:08.075Z,14.80
2019-05-09T06:55:38.542Z,14.70
2019-05-09T06:58:27.568Z,14.70
2019-05-09T07:01:02.994Z,14.80
2019-05-09T07:03:32.138Z,15.20
2019-05-09T07:06:14.474Z,15.60
2019-05-09T07:08:50.652Z,16.00
2019-05-09T07:11:19.737Z,16.20
2019-05-09T07:13:49.014Z,15.60
2019-05-09T07:16:18.753Z,15.80
2019-05-09T07:18:48.426Z,16.10
2019-05-09T07:21:18.988Z,16.20
2019-05-09T07:23:48.256Z,16.50
2019-05-09T07:26:19.958Z,17.20
2019-05-09T07:28:49.223Z,17.00
2019-05-09T07:31:31.101Z,17.30
2019-05-09T07:34:13.937Z,17.60
2019-05-09T07:37:02.110Z,17.30
2019-05-09T07:39:31.485Z,17.40
2019-05-09T07:42:00.426Z,16.90
2019-05-09T07:44:44.267Z,16.20
2019-05-09T07:47:02.282Z,16.40
2019-05-09T07:49:32.833Z,16.70
2019-05-09T07:52:06.839Z,17.10
2019-05-09T07:54:32.490Z,17.20
2019-05-09T07:57:01.575Z,17.20
2019-05-09T07:59:30.693Z,17.20
2019-05-09T08:01:59.709Z,17.30
2019-05-09T08:04:28.853Z,17.40
2019-05-09T08:06:58.200Z,17.90
2019-05-09T08:09:28.150Z,19.50
2019-05-09T08:11:58.702Z,18.50
2019-05-09T08:14:28.179Z,18.90
2019-05-09T08:16:58.021Z,18.90
2019-05-09T08:19:27.664Z,19.30
2019-05-09T08:21:57.541Z,18.80
2019-05-09T08:24:27.808Z,17.90
2019-05-09T08:26:58.121Z,18.30
2019-05-09T08:29:28.166Z,18.40
2019-05-09T08:31:58.296Z,17.70
2019-05-09T08:34:28.456Z,17.30
2019-05-09T08:36:58.202Z,17.40
2019-05-09T08:39:27.837Z,18.40
2019-05-09T08:41:59.283Z,18.10
2019-05-09T08:44:30.416Z,18.60
2019-05-09T08:46:58.776Z,18.30
2019-05-09T08:49:37.428Z,19.10
2019-05-09T08:52:16.157Z,19.80
2019-05-09T08:54:43.603Z,20.30
2019-05-09T08:57:12.711Z,20.20
2019-05-09T08:59:41.585Z,20.80
2019-05-09T09:02:15.434Z,20.90
2019-05-09T09:04:41.288Z,21.70
2019-05-09T09:07:10.304Z,20.60
2019-05-09T09:09:39.138Z,20.30
2019-05-09T09:12:25.173Z,21.00
2019-05-09T09:14:38.872Z,19.70
2019-05-09T09:17:08.072Z,19.60
2019-05-09T09:19:38.570Z,19.80
2019-05-09T09:22:08.860Z,20.50
2019-05-09T09:24:38.155Z,19.20
2019-05-09T09:27:07.691Z,18.60
2019-05-09T09:29:38.072Z,18.50
2019-05-09T09:32:08.331Z,18.90
2019-05-09T09:34:38.006Z,19.30
2019-05-09T09:37:11.234Z,20.50
2019-05-09T09:39:44.312Z,21.50
2019-05-09T09:42:09.181Z,21.20
2019-05-09T09:44:39.339Z,20.20
2019-05-09T09:47:08.701Z,20.30
2019-05-09T09:49:38.665Z,20.50
2019-05-09T09:52:08.694Z,20.30
2019-05-09T09:54:38.753Z,21.20
2019-05-09T09:57:09.669Z,20.70
2019-05-09T10:00:03.534Z,20.30
2019-05-09T10:02:37.304Z,21.00
2019-05-09T10:05:07.781Z,21.20
2019-05-09T10:07:38.427Z,20.00
2019-05-09T10:10:08.000Z,21.00
2019-05-09T10:12:43.565Z,21.30
2019-05-09T10:15:18.749Z,21.30
2019-05-09T10:18:12.057Z,20.10
2019-05-09T10:20:59.981Z,19.60
2019-05-09T10:23:31.918Z,19.40
2019-05-09T10:26:00.762Z,19.20
2019-05-09T10:28:30.190Z,20.10
2019-05-09T10:30:59.453Z,20.30
2019-05-09T10:33:28.351Z,20.40
2019-05-09T10:36:04.515Z,19.40
2019-05-09T10:38:28.096Z,19.00
2019-05-09T10:41:01.146Z,18.60
2019-05-09T10:43:39.000Z,18.10
2019-05-09T10:46:52.862Z,17.50
2019-05-09T10:49:14.341Z,17.10
2019-05-09T10:51:43.422Z,16.80
2019-05-09T10:54:12.477Z,16.80
2019-05-09T10:56:41.391Z,16.70
2019-05-09T10:59:10.554Z,16.40
2019-05-09T11:01:39.471Z,16.40
2019-05-09T11:04:08.573Z,16.30
2019-05-09T11:06:38.435Z,16.00
2019-05-09T11:09:09.009Z,16.40
2019-05-09T11:11:38.214Z,16.30
2019-05-09T11:14:08.531Z,17.20
2019-05-09T11:16:45.747Z,18.00
2019-05-09T11:19:08.571Z,18.30
2019-05-09T11:21:39.189Z,18.90
2019-05-09T11:24:08.661Z,18.30
2019-05-09T11:26:39.844Z,18.40
2019-05-09T11:29:08.379Z,18.00
2019-05-09T11:31:38.374Z,17.40
2019-05-09T11:34:08.923Z,17.00
2019-05-09T11:36:41.056Z,16.50
2019-05-09T11:39:10.889Z,15.50
2019-05-09T11:41:40.059Z,15.00
2019-05-09T11:44:09.103Z,13.50
2019-05-09T11:46:38.369Z,11.60
2019-05-09T11:49:08.737Z,11.00
2019-05-09T11:51:37.657Z,10.50
2019-05-09T11:54:09.083Z,10.40
2019-05-09T11:56:38.466Z,10.10
2019-05-09T11:59:08.025Z,9.90
2019-05-09T12:01:39.618Z,9.80
2019-05-09T12:04:08.132Z,9.80
2019-05-09T12:06:38.307Z,9.90
2019-05-09T12:09:08.718Z,10.20
2019-05-09T12:11:41.301Z,10.50
2019-05-09T12:14:09.044Z,10.80
2019-05-09T12:16:38.251Z,11.20
2019-05-09T12:19:07.523Z,11.30
2019-05-09T12:21:44.980Z,11.60
2019-05-09T12:24:09.074Z,12.20
2019-05-09T12:26:39.086Z,12.40
2019-05-09T12:29:08.936Z,12.70
2019-05-09T12:31:38.741Z,13.30
2019-05-09T12:34:09.091Z,13.60
2019-05-09T12:36:39.803Z,13.60
2019-05-09T12:39:09.417Z,13.40
2019-05-09T12:41:38.657Z,13.80
2019-05-09T12:44:08.787Z,14.10
2019-05-09T12:46:39.333Z,13.70
2019-05-09T12:49:09.028Z,14.00
2019-05-09T12:51:38.087Z,14.20
2019-05-09T12:54:08.451Z,14.40
2019-05-09T12:56:38.525Z,14.80
2019-05-09T12:59:08.792Z,15.10
2019-05-09T13:01:40.804Z,16.00
2019-05-09T13:04:09.689Z,16.10
2019-05-09T13:06:38.871Z,16.60
2019-05-09T13:09:08.471Z,16.70
2019-05-09T13:11:39.023Z,17.20
2019-05-09T13:14:10.108Z,17.40
2019-05-09T13:16:57.588Z,17.50
2019-05-09T13:19:30.933Z,17.30
2019-05-09T13:21:59.754Z,17.40
2019-05-09T13:24:28.670Z,17.30
2019-05-09T13:26:57.506Z,16.80
2019-05-09T13:29:26.410Z,17.40
2019-05-09T13:31:57.557Z,17.80
2019-05-09T13:34:28.221Z,18.20
2019-05-09T13:36:59.035Z,17.70
2019-05-09T13:39:28.026Z,17.50
2019-05-09T13:41:58.225Z,17.60
2019-05-09T13:44:27.845Z,17.40
2019-05-09T13:46:58.408Z,17.20
2019-05-09T13:49:28.597Z,16.90
2019-05-09T13:52:04.212Z,16.80
2019-05-09T13:54:28.814Z,16.80
2019-05-09T13:57:01.041Z,16.50
2019-05-09T13:59:30.015Z,16.70
2019-05-09T14:01:59.055Z,17.30
2019-05-09T14:04:29.360Z,17.60
2019-05-09T14:06:58.198Z,17.80
2019-05-09T14:09:29.161Z,18.00
2019-05-09T14:11:58.974Z,17.80
2019-05-09T14:14:28.257Z,17.50
2019-05-09T14:16:59.276Z,17.10
2019-05-09T14:19:39.605Z,16.90
2019-05-09T14:21:58.793Z,16.70
2019-05-09T14:24:28.060Z,16.80
2019-05-09T14:26:58.219Z,17.00
2019-05-09T14:29:31.617Z,17.40
2019-05-09T14:31:57.929Z,17.30
2019-05-09T14:34:26.801Z,17.50
2019-05-09T14:36:58.453Z,17.90
2019-05-09T14:39:27.655Z,18.20
2019-05-09T14:41:57.890Z,18.40
2019-05-09T14:44:27.712Z,18.20
2019-05-09T14:46:58.402Z,18.00
2019-05-09T14:49:39.627Z,17.30
2019-05-09T14:51:58.133Z,16.80
2019-05-09T14:54:28.841Z,16.80
2019-05-09T14:56:58.436Z,16.80
2019-05-09T14:59:28.580Z,16.70
2019-05-09T15:01:59.135Z,16.50
2019-05-09T15:04:28.317Z,16.40
2019-05-09T15:06:57.993Z,16.30
2019-05-09T15:09:28.459Z,16.00
2019-05-09T15:11:58.477Z,15.80
2019-05-09T15:14:28.921Z,15.80
2019-05-09T15:16:57.894Z,15.70
2019-05-09T15:19:28.705Z,15.90
2019-05-09T15:22:00.396Z,16.00
2019-05-09T15:24:28.667Z,16.30
2019-05-09T15:26:58.152Z,16.20
2019-05-09T15:29:28.975Z,16.20
2019-05-09T15:32:05.171Z,16.20
2019-05-09T15:34:28.625Z,16.10
2019-05-09T15:36:58.261Z,16.00
2019-05-09T15:39:27.886Z,15.90
2019-05-09T15:41:58.005Z,15.90
2019-05-09T15:44:27.150Z,15.90
2019-05-09T15:47:01.598Z,16.00
2019-05-09T15:49:30.477Z,16.00
2019-05-09T15:51:59.561Z,16.00
2019-05-09T15:54:29.399Z,16.00
2019-05-09T15:56:58.510Z,16.00
2019-05-09T15:59:28.231Z,16.00
2019-05-09T16:01:58.417Z,15.90
2019-05-09T16:04:28.120Z,15.80
2019-05-09T16:06:57.235Z,15.60
2019-05-09T16:09:28.619Z,15.60
2019-05-09T16:11:57.346Z,15.50
2019-05-09T16:14:27.639Z,15.50
2019-05-09T16:16:56.982Z,15.40
2019-05-09T16:19:25.838Z,15.30
2019-05-09T16:21:54.672Z,15.20
2019-05-09T16:24:23.531Z,15.10
2019-05-09T16:26:52.441Z,15.10
2019-05-09T16:29:21.403Z,15.20
2019-05-09T16:31:50.309Z,15.10
2019-05-09T16:34:19.207Z,15.00
2019-05-09T16:36:48.325Z,15.00
2019-05-09T16:39:18.137Z,15.00
2019-05-09T16:41:48.438Z,14.90
2019-05-09T16:44:18.448Z,14.70
2019-05-09T16:46:48.618Z,13.70
2019-05-09T16:49:19.875Z,12.20
2019-05-09T16:51:48.888Z,11.30
2019-05-09T16:54:18.291Z,10.80
2019-05-09T16:56:47.379Z,10.40
2019-05-09T16:59:17.946Z,10.30
2019-05-09T17:01:50.080Z,10.20
2019-05-09T17:04:19.241Z,10.20
2019-05-09T17:06:49.722Z,10.20
2019-05-09T17:09:19.070Z,10.20
2019-05-09T17:11:48.213Z,10.20
2019-05-09T17:14:19.340Z,10.20
2019-05-09T17:16:52.618Z,10.30
2019-05-09T17:19:19.678Z,10.40
2019-05-09T17:21:58.533Z,10.40
2019-05-09T17:24:29.700Z,10.60
2019-05-09T17:26:58.391Z,10.70
2019-05-09T17:29:28.044Z,10.90
2019-05-09T17:31:58.451Z,11.00
2019-05-09T17:34:28.725Z,11.10
2019-05-09T17:36:58.201Z,11.10
2019-05-09T17:39:27.860Z,11.20
2019-05-09T17:41:58.261Z,11.20
2019-05-09T17:44:28.145Z,11.20
2019-05-09T17:46:58.158Z,11.20
2019-05-09T17:49:28.091Z,11.10
2019-05-09T17:51:58.473Z,11.00
2019-05-09T17:54:28.721Z,10.90
2019-05-09T17:56:58.231Z,10.90
2019-05-09T17:59:29.306Z,10.70
2019-05-09T18:01:58.070Z,10.70
2019-05-09T18:04:28.739Z,10.60
2019-05-09T18:06:58.522Z,10.60
2019-05-09T18:09:28.569Z,10.60
2019-05-09T18:11:58.026Z,10.60
2019-05-09T18:14:27.648Z,10.60
2019-05-09T18:16:58.195Z,10.60
2019-05-09T18:19:29.396Z,10.60
2019-05-09T18:21:58.070Z,10.60
2019-05-09T18:24:28.747Z,10.60
2019-05-09T18:26:58.425Z,10.60
2019-05-09T18:29:27.725Z,10.60
2019-05-09T18:32:07.754Z,10.60
2019-05-09T18:34:37.972Z,10.60
2019-05-09T18:37:08.022Z,10.70
2019-05-09T18:39:37.612Z,10.70
2019-05-09T18:42:08.711Z,10.70
2019-05-09T18:44:37.213Z,10.70
2019-05-09T18:47:07.854Z,10.70
2019-05-09T18:49:36.870Z,10.70
2019-05-09T18:52:06.009Z,10.70
2019-05-09T18:54:35.127Z,10.70
2019-05-09T18:57:04.090Z,10.70
2019-05-09T18:59:33.138Z,10.60
2019-05-09T19:02:02.118Z,10.60
2019-05-09T19:04:31.171Z,10.60
2019-05-09T19:07:00.090Z,10.60
2019-05-09T19:09:29.107Z,10.60
2019-05-09T19:11:58.031Z,10.50
2019-05-09T19:14:27.082Z,10.50
2019-05-09T19:17:18.098Z,10.50
2019-05-09T19:20:04.105Z,10.60
2019-05-09T19:22:32.970Z,10.60
2019-05-09T19:25:01.797Z,10.60
2019-05-09T19:27:30.712Z,10.60
2019-05-09T19:29:59.538Z,10.60
2019-05-09T19:32:28.462Z,10.60
2019-05-09T19:34:57.530Z,10.60
2019-05-09T19:37:26.694Z,10.60
2019-05-09T19:39:55.553Z,10.60
2019-05-09T19:42:24.463Z,10.60
2019-05-09T19:44:53.628Z,10.60
2019-05-09T19:47:22.538Z,10.60
2019-05-09T19:49:51.563Z,10.60
2019-05-09T19:52:20.450Z,10.60
2019-05-09T19:54:49.525Z,10.60
2019-05-09T19:57:18.353Z,10.70
2019-05-09T19:59:47.192Z,10.70
2019-05-09T20:02:16.320Z,10.70
2019-05-09T20:04:45.480Z,10.80
2019-05-09T20:07:14.717Z,10.80
2019-05-09T20:09:49.370Z,10.80
2019-05-09T20:12:37.261Z,10.90
2019-05-09T20:15:06.602Z,10.90
2019-05-09T20:17:35.812Z,10.90
2019-05-09T20:20:04.953Z,10.90
2019-05-09T20:22:33.891Z,10.90
2019-05-09T20:25:02.822Z,10.90
2019-05-09T20:27:31.808Z,10.90
2019-05-09T20:30:01.492Z,10.90
2019-05-09T20:32:30.457Z,10.90
2019-05-09T20:34:59.742Z,10.90
2019-05-09T20:37:28.867Z,10.90
2019-05-09T20:39:57.962Z,10.90
2019-05-09T20:42:27.562Z,10.90
2019-05-09T20:44:56.661Z,10.90
2019-05-09T20:47:25.910Z,10.90
2019-05-09T20:49:55.249Z,10.90
2019-05-09T20:52:24.273Z,10.90
2019-05-09T20:54:53.442Z,10.90
2019-05-09T20:57:22.514Z,10.90
2019-05-09T20:59:51.682Z,10.90
2019-05-09T21:02:20.989Z,10.90
2019-05-09T21:04:50.274Z,10.90
2019-05-09T21:07:19.282Z,11.00
2019-05-09T21:09:48.307Z,11.00
2019-05-09T21:12:17.339Z,11.00
2019-05-09T21:14:46.434Z,11.00
2019-05-09T21:17:15.522Z,11.00
2019-05-09T21:19:44.855Z,11.00
2019-05-09T21:22:13.890Z,11.00
2019-05-09T21:24:43.056Z,10.90
2019-05-09T21:27:12.310Z,10.90
2019-05-09T21:29:41.658Z,10.90
2019-05-09T21:32:10.666Z,10.90
2019-05-09T21:34:39.563Z,10.90
2019-05-09T21:37:09.798Z,10.80
2019-05-09T21:39:39.030Z,10.70
2019-05-09T21:42:08.169Z,10.70
2019-05-09T21:44:37.070Z,10.60
2019-05-09T21:47:05.978Z,10.60
2019-05-09T21:49:34.870Z,10.50
2019-05-09T21:52:03.815Z,10.50
2019-05-09T21:54:32.770Z,10.50
2019-05-09T21:57:01.762Z,10.50
2019-05-09T21:59:31.978Z,10.50
2019-05-09T22:02:00.951Z,10.50
2019-05-09T22:04:29.932Z,10.50
2019-05-09T22:06:59.007Z,10.50
2019-05-09T22:09:27.905Z,10.60
2019-05-09T22:11:56.820Z,10.60
2019-05-09T22:14:25.850Z,10.50
2019-05-09T22:16:54.753Z,10.50
2019-05-09T22:19:23.721Z,10.50
2019-05-09T22:21:52.637Z,10.40
2019-05-09T22:24:21.471Z,10.50
2019-05-09T22:26:50.586Z,10.50
2019-05-09T22:29:25.267Z,10.50
2019-05-09T22:31:54.816Z,10.50
2019-05-09T22:34:23.710Z,10.50
2019-05-09T22:36:52.537Z,10.50
2019-05-09T22:39:21.518Z,10.50
2019-05-09T22:41:50.919Z,10.50
2019-05-09T22:44:19.913Z,10.50
2019-05-09T22:46:48.832Z,10.50
2019-05-09T22:49:17.694Z,10.50
2019-05-09T22:51:46.850Z,10.50
2019-05-09T22:54:15.978Z,10.50
2019-05-09T22:56:44.798Z,10.50
2019-05-09T22:59:13.639Z,10.50
2019-05-09T23:01:42.536Z,10.60
2019-05-09T23:04:11.520Z,10.50
2019-05-09T23:06:40.416Z,10.50
2019-05-09T23:09:09.637Z,10.60
2019-05-09T23:11:50.704Z,10.60
2019-05-09T23:14:19.614Z,10.60
2019-05-09T23:16:50.721Z,10.60
2019-05-09T23:19:19.091Z,10.60
2019-05-09T23:21:47.916Z,10.50
2019-05-09T23:24:28.103Z,10.50
2019-05-09T23:26:50.874Z,10.40
2019-05-09T23:29:19.797Z,10.20
2019-05-09T23:31:55.342Z,10.20
2019-05-09T23:34:24.570Z,10.10
2019-05-09T23:36:53.494Z,10.10
2019-05-09T23:39:24.720Z,10.10
2019-05-09T23:41:53.868Z,10.10
2019-05-09T23:44:23.058Z,10.10
2019-05-09T23:46:52.057Z,10.10
2019-05-09T23:49:21.221Z,10.20
2019-05-09T23:51:50.222Z,10.20
2019-05-09T23:54:47.245Z,10.20
2019-05-09T23:57:27.877Z,10.20
